气象报文与情报通波
气象报文机场: ZUUU
ADDS - METARS form results

(1153 UTC 18 November 2019)
数据来源 http://aviationweather.gov/metar/data/
 
METAR text: ZUUU 181100Z VRB01MPS CAVOK 11/04 Q1027 NOSIG
Conditions at: ZUUU (CHENGDU , CN) observed 1100 UTC 18 November 2019
Temperature: 11.0°C (52°F)
Dewpoint: 4.0°C (39°F) [RH = 62%]
Pressure (altimeter): 30.32 inches Hg (1027.0 mb)
Winds: variable direction winds at 2 MPH (2 knots; 1.0 m/s)
Visibility: 6 or more miles (10+ km)
Ceiling: ceiling and visibility are OK
Clouds: unknown
Weather: no significant weather observed at this time

Forecast for: ZUUU (CHENGDU , CN)
Text: TAF ZUUU 180804Z 1812/1912 18003MPS 6000 SCT050 TX11/1907Z TN08/1823Z
Forecast period: 1200 UTC 18 November 2019 to 1200 UTC 19 November 2019
Forecast type: FROM: standard forecast or significant change
Winds: from the S (180 degrees) at 7 MPH (6 knots; 3.1 m/s)
Visibility: 4 miles (6 km)
Ceiling: at least 12,000 feet AGL
Clouds: scattered clouds at 5000 feet AGL
Weather: no significant weather forecast for this period

 机场地图

 跑道信息
跑道 02 跑道长度 11811 ft 跑道宽度 197 ft
跑道标高 1617 ft 跑道內移距离 0 ft 跑道磁航向 22
跑道 20 跑道长度 11811 ft 跑道宽度 197 ft
跑道标高 1624 ft 跑道內移距离 0 ft 跑道磁航向 202

 机场频率
类型 APP 名称 CHENGDU AP 频率 119.7 MHZ
类型 APP 名称 CHENGDU AP 频率 125.6 MHZ
类型 ATIS 名称 ATIS 频率 128.6 MHZ
类型 GND 名称 CHENGDU GN 频率 121.85 MHZ
类型 TWR 名称 CHENGDU TW 频率 123 MHZ

 机场附近导航设备
类型 VOR-DME 名称 Baihesi 频率 117900 KHZ
类型 VOR-DME 名称 Shuangliu 频率 115700 KHZ



© FlySim.cn中国最大航空飞行视频网版权所有